createdAt,value
2022-08-31T00:00:30.457Z,4.33
2022-08-31T00:03:16.248Z,4.03
2022-08-31T00:05:45.962Z,6.70
2022-08-31T00:08:14.049Z,5.03
2022-08-31T00:10:46.099Z,4.63
2022-08-31T00:13:14.445Z,4.90
2022-08-31T00:15:43.463Z,5.30
2022-08-31T00:18:11.706Z,4.30
2022-08-31T00:20:40.020Z,4.40
2022-08-31T00:23:12.319Z,4.60
2022-08-31T00:25:42.317Z,4.20
2022-08-31T00:28:11.472Z,4.40
2022-08-31T00:30:39.766Z,4.83
2022-08-31T00:33:08.211Z,4.13
2022-08-31T00:35:37.680Z,4.53
2022-08-31T00:38:06.892Z,3.83
2022-08-31T00:40:44.364Z,4.57
2022-08-31T00:43:12.931Z,4.90
2022-08-31T00:45:41.037Z,4.23
2022-08-31T00:48:09.001Z,3.93
2022-08-31T00:50:37.016Z,5.47
2022-08-31T00:53:05.390Z,4.50
2022-08-31T00:55:37.436Z,5.20
2022-08-31T00:58:10.039Z,5.67
2022-08-31T01:00:38.200Z,5.30
2022-08-31T01:03:09.208Z,5.60
2022-08-31T01:05:37.607Z,4.73
2022-08-31T01:08:07.240Z,4.23
2022-08-31T01:10:39.992Z,4.50
2022-08-31T01:13:08.991Z,4.97
2022-08-31T01:15:38.825Z,3.63
2022-08-31T01:18:08.292Z,4.77
2022-08-31T01:20:48.932Z,4.73
2022-08-31T01:23:22.092Z,4.97
2022-08-31T01:25:51.038Z,4.80
2022-08-31T01:28:19.549Z,5.10
2022-08-31T01:31:02.539Z,4.80
2022-08-31T01:33:31.123Z,5.00
2022-08-31T01:36:00.173Z,5.70
2022-08-31T01:38:30.514Z,6.40
2022-08-31T01:41:02.121Z,5.20
2022-08-31T01:43:33.856Z,5.43
2022-08-31T01:46:02.161Z,5.23
2022-08-31T01:48:30.709Z,4.80
2022-08-31T01:50:58.764Z,4.90
2022-08-31T01:53:26.872Z,4.73
2022-08-31T01:55:56.217Z,4.80
2022-08-31T01:58:24.208Z,4.93
2022-08-31T02:00:52.389Z,5.27
2022-08-31T02:03:20.452Z,4.80
2022-08-31T02:05:48.420Z,4.87
2022-08-31T02:08:16.422Z,4.30
2022-08-31T02:10:44.420Z,4.03
2022-08-31T02:13:14.039Z,5.10
2022-08-31T02:15:42.272Z,5.90
2022-08-31T02:18:10.207Z,5.40
2022-08-31T02:20:40.131Z,4.47
2022-08-31T02:23:08.067Z,5.10
2022-08-31T02:25:36.375Z,5.10
2022-08-31T02:28:05.207Z,4.13
2022-08-31T02:30:34.591Z,4.77
2022-08-31T02:33:02.589Z,4.80
2022-08-31T02:35:30.716Z,5.20
2022-08-31T02:37:58.699Z,5.43
2022-08-31T02:40:27.334Z,5.33
2022-08-31T02:42:55.444Z,5.00
2022-08-31T02:45:24.330Z,5.17
2022-08-31T02:47:53.660Z,5.00
2022-08-31T02:50:22.015Z,5.60
2022-08-31T02:52:50.612Z,5.00
2022-08-31T02:55:19.015Z,5.10
2022-08-31T02:57:50.049Z,4.87
2022-08-31T03:00:19.106Z,4.87
2022-08-31T03:02:47.081Z,5.47
2022-08-31T03:05:16.678Z,5.10
2022-08-31T03:07:45.442Z,5.77
2022-08-31T03:10:14.973Z,5.10
2022-08-31T03:12:43.593Z,5.33
2022-08-31T03:15:12.560Z,5.27
2022-08-31T03:17:40.565Z,5.13
2022-08-31T03:20:10.139Z,5.43
2022-08-31T03:22:40.137Z,4.50
2022-08-31T03:25:14.185Z,5.20
2022-08-31T03:27:42.100Z,5.70
2022-08-31T03:30:14.263Z,5.57
2022-08-31T03:32:42.822Z,6.53
2022-08-31T03:35:11.079Z,4.87
2022-08-31T03:37:40.383Z,5.40
2022-08-31T03:40:10.165Z,5.73
2022-08-31T03:42:38.659Z,5.57
2022-08-31T03:45:08.576Z,5.87
2022-08-31T03:47:44.476Z,5.60
2022-08-31T03:50:15.775Z,4.97
2022-08-31T03:52:45.104Z,5.90
2022-08-31T03:55:14.102Z,5.70
2022-08-31T03:57:42.066Z,5.57
2022-08-31T04:00:11.395Z,5.30
2022-08-31T04:02:40.198Z,5.80
2022-08-31T04:05:10.031Z,5.93
2022-08-31T04:07:42.323Z,5.67
2022-08-31T04:10:13.951Z,5.97
2022-08-31T04:12:42.196Z,5.23
2022-08-31T04:15:11.623Z,6.00
2022-08-31T04:17:39.644Z,5.77
2022-08-31T04:20:08.535Z,5.43
2022-08-31T04:22:36.471Z,5.90
2022-08-31T04:25:05.367Z,6.97
2022-08-31T04:27:34.639Z,5.87
2022-08-31T04:30:03.856Z,5.37
2022-08-31T04:32:31.875Z,5.97
2022-08-31T04:34:59.873Z,5.60
2022-08-31T04:37:27.824Z,6.37
2022-08-31T04:39:56.210Z,6.87
2022-08-31T04:42:27.203Z,6.40
2022-08-31T04:44:56.655Z,6.10
2022-08-31T04:47:24.695Z,5.27
2022-08-31T04:49:55.615Z,5.83
2022-08-31T04:52:28.299Z,4.80
2022-08-31T04:54:57.509Z,5.27
2022-08-31T04:57:25.881Z,5.70
2022-08-31T04:59:54.276Z,5.40
2022-08-31T05:02:24.283Z,5.33
2022-08-31T05:04:52.736Z,6.20
2022-08-31T05:07:21.132Z,4.50
2022-08-31T05:09:52.650Z,4.67
2022-08-31T05:12:21.582Z,5.00
2022-08-31T05:14:49.564Z,4.80
2022-08-31T05:17:17.653Z,5.00
2022-08-31T05:19:47.038Z,4.83
2022-08-31T05:22:15.043Z,4.23
2022-08-31T05:24:43.027Z,4.90
2022-08-31T05:27:11.029Z,4.70
2022-08-31T05:29:38.983Z,4.63
2022-08-31T05:32:07.316Z,5.50
2022-08-31T05:34:35.290Z,5.63
2022-08-31T05:37:04.816Z,5.20
2022-08-31T05:39:33.381Z,6.20
2022-08-31T05:42:01.519Z,7.80
2022-08-31T05:44:29.759Z,6.13
2022-08-31T05:47:03.365Z,5.47
2022-08-31T05:49:32.615Z,5.27
2022-08-31T05:52:01.130Z,5.30
2022-08-31T05:54:30.552Z,5.20
2022-08-31T05:57:01.495Z,5.00
2022-08-31T05:59:30.980Z,4.67
2022-08-31T06:01:59.356Z,5.20
2022-08-31T06:04:29.051Z,5.37
2022-08-31T06:06:58.281Z,5.20
2022-08-31T06:09:27.279Z,8.63
2022-08-31T06:11:56.904Z,5.50
2022-08-31T06:14:24.967Z,5.60
2022-08-31T06:16:56.343Z,5.63
2022-08-31T06:19:24.581Z,6.70
2022-08-31T06:21:52.754Z,5.10
2022-08-31T06:24:21.438Z,5.27
2022-08-31T06:26:58.513Z,5.60
2022-08-31T06:29:31.481Z,5.47
2022-08-31T06:32:00.719Z,4.70
2022-08-31T06:34:30.607Z,4.83
2022-08-31T06:36:59.971Z,4.23
2022-08-31T06:39:28.058Z,4.50
2022-08-31T06:41:57.656Z,5.00
2022-08-31T06:44:26.362Z,4.80
2022-08-31T06:46:56.163Z,4.40
2022-08-31T06:49:24.717Z,5.10
2022-08-31T06:51:53.222Z,4.47
2022-08-31T06:54:29.469Z,4.43
2022-08-31T06:56:58.800Z,4.53
2022-08-31T06:59:29.186Z,4.10
2022-08-31T07:01:59.673Z,4.00
2022-08-31T07:04:28.688Z,3.73
2022-08-31T07:06:56.735Z,4.27
2022-08-31T07:09:25.153Z,4.53
2022-08-31T07:11:54.371Z,5.17
2022-08-31T07:14:24.751Z,3.70
2022-08-31T07:16:53.902Z,3.83
2022-08-31T07:19:30.190Z,3.57
2022-08-31T07:22:00.117Z,3.90
2022-08-31T07:24:33.727Z,3.50
2022-08-31T07:27:05.937Z,3.63
2022-08-31T07:29:40.838Z,3.83
2022-08-31T07:32:11.408Z,4.30
2022-08-31T07:34:45.001Z,4.05
2022-08-31T07:37:30.927Z,3.50
2022-08-31T07:40:41.982Z,3.53
2022-08-31T07:43:45.779Z,4.00
2022-08-31T07:49:52.275Z,3.70
2022-08-31T07:52:36.390Z,3.20
2022-08-31T07:55:10.755Z,3.47
2022-08-31T07:57:43.410Z,3.40
2022-08-31T08:00:14.721Z,3.43
2022-08-31T08:02:53.176Z,2.97
2022-08-31T08:05:27.249Z,3.20
2022-08-31T08:07:59.075Z,3.23
2022-08-31T08:10:27.905Z,3.57
2022-08-31T08:13:01.743Z,3.30
2022-08-31T08:15:36.239Z,2.60
2022-08-31T08:18:05.376Z,3.10
2022-08-31T08:20:37.742Z,3.43
2022-08-31T08:23:11.600Z,3.47
2022-08-31T08:25:43.161Z,2.97
2022-08-31T08:28:38.220Z,3.20
2022-08-31T08:31:06.742Z,3.30
2022-08-31T08:33:37.815Z,3.20
2022-08-31T08:36:09.558Z,3.77
2022-08-31T08:42:15.365Z,3.83
2022-08-31T08:44:44.924Z,3.43
2022-08-31T08:47:16.344Z,2.70
2022-08-31T08:49:54.297Z,2.90
2022-08-31T08:52:26.844Z,3.27
2022-08-31T08:54:56.708Z,3.20
2022-08-31T08:57:28.153Z,2.93
2022-08-31T08:59:59.686Z,2.87
2022-08-31T09:02:34.817Z,2.78
2022-08-31T09:05:21.543Z,2.85
2022-08-31T09:08:05.274Z,3.42
2022-08-31T09:10:39.120Z,2.50
2022-08-31T09:13:17.694Z,3.05
2022-08-31T09:15:55.202Z,2.97
2022-08-31T09:18:32.976Z,2.60
2022-08-31T09:21:04.233Z,2.67
2022-08-31T09:23:37.505Z,2.75
2022-08-31T09:26:08.435Z,3.05
2022-08-31T09:28:40.738Z,2.45
2022-08-31T09:31:09.129Z,3.20
2022-08-31T09:33:51.013Z,3.08
2022-08-31T09:36:22.477Z,3.42
2022-08-31T09:38:51.889Z,3.20
2022-08-31T09:41:32.822Z,2.70
2022-08-31T09:44:22.419Z,3.05
2022-08-31T09:46:53.430Z,2.70
2022-08-31T09:49:23.507Z,2.78
2022-08-31T09:51:52.222Z,2.53
2022-08-31T09:54:37.796Z,2.65
2022-08-31T09:57:08.047Z,2.90
2022-08-31T09:59:40.130Z,3.28
2022-08-31T10:02:12.248Z,2.97
2022-08-31T10:04:54.538Z,3.30
2022-08-31T10:07:37.707Z,3.00
2022-08-31T10:10:28.197Z,2.60
2022-08-31T10:13:03.807Z,2.90
2022-08-31T10:15:39.626Z,2.72
2022-08-31T10:18:14.216Z,3.00
2022-08-31T10:20:46.543Z,3.55
2022-08-31T10:23:27.289Z,3.40
2022-08-31T10:26:04.670Z,2.60
2022-08-31T10:28:37.586Z,2.38
2022-08-31T10:31:13.671Z,2.75
2022-08-31T10:34:06.319Z,2.65
2022-08-31T10:36:38.661Z,3.08
2022-08-31T10:39:16.806Z,3.13
2022-08-31T10:41:51.179Z,2.40
2022-08-31T10:44:26.295Z,2.92
2022-08-31T10:46:58.998Z,2.85
2022-08-31T10:49:27.940Z,3.45
2022-08-31T10:52:03.273Z,2.80
2022-08-31T10:54:41.968Z,2.88
2022-08-31T10:57:25.992Z,3.03
2022-08-31T11:00:03.908Z,3.40
2022-08-31T11:02:41.271Z,3.78
2022-08-31T11:05:22.992Z,2.85
2022-08-31T11:07:58.853Z,3.97
2022-08-31T11:10:39.937Z,3.40
2022-08-31T11:13:17.836Z,3.03
2022-08-31T11:16:18.998Z,3.20
2022-08-31T11:19:17.422Z,3.20
2022-08-31T11:22:02.881Z,2.72
2022-08-31T11:25:15.383Z,3.63
2022-08-31T11:27:49.165Z,3.10
2022-08-31T11:30:24.621Z,3.70
2022-08-31T11:32:55.691Z,3.40
2022-08-31T11:36:05.344Z,3.47
2022-08-31T11:38:52.158Z,2.97
2022-08-31T11:41:36.996Z,3.47
2022-08-31T11:44:07.750Z,3.40
2022-08-31T11:47:06.877Z,3.67
2022-08-31T11:49:38.987Z,3.00
2022-08-31T11:52:12.282Z,3.53
2022-08-31T11:55:12.032Z,3.83
2022-08-31T11:58:20.899Z,3.08
2022-08-31T12:00:56.351Z,3.20
2022-08-31T12:03:50.710Z,2.92
2022-08-31T12:07:08.025Z,3.40
2022-08-31T12:10:09.135Z,2.83
2022-08-31T12:13:03.474Z,3.10
2022-08-31T12:15:44.478Z,3.20
2022-08-31T12:18:22.088Z,2.83
2022-08-31T12:21:15.721Z,2.57
2022-08-31T12:23:53.441Z,3.03
2022-08-31T12:26:49.453Z,3.23
2022-08-31T12:29:26.981Z,2.70
2022-08-31T12:32:21.473Z,3.20
2022-08-31T12:34:56.070Z,3.67
2022-08-31T12:37:28.334Z,3.10
2022-08-31T12:40:16.291Z,3.00
2022-08-31T12:42:57.576Z,3.47
2022-08-31T12:45:53.750Z,3.30
2022-08-31T12:48:38.240Z,3.30
2022-08-31T12:51:15.392Z,2.87
2022-08-31T12:54:03.492Z,4.00
2022-08-31T12:56:39.093Z,2.97
2022-08-31T12:59:20.510Z,3.03
2022-08-31T13:01:51.079Z,3.80
2022-08-31T13:04:21.457Z,3.60
2022-08-31T13:06:49.426Z,3.37
2022-08-31T13:09:31.220Z,3.90
2022-08-31T13:12:01.589Z,3.70
2022-08-31T13:14:39.704Z,3.47
2022-08-31T13:17:15.080Z,3.63
2022-08-31T13:19:49.384Z,3.77
2022-08-31T13:22:27.618Z,3.67
2022-08-31T13:25:10.617Z,3.23
2022-08-31T13:27:41.201Z,3.43
2022-08-31T13:30:19.130Z,3.77
2022-08-31T13:32:49.989Z,3.63
2022-08-31T13:35:21.001Z,3.37
2022-08-31T13:38:03.889Z,3.70
2022-08-31T13:40:37.255Z,3.20
2022-08-31T13:43:08.414Z,4.00
2022-08-31T13:45:43.137Z,4.13
2022-08-31T13:48:16.254Z,3.60
2022-08-31T13:50:52.716Z,3.70
2022-08-31T13:53:40.957Z,3.77
2022-08-31T13:56:53.002Z,3.77
2022-08-31T13:59:32.730Z,4.40
2022-08-31T14:02:03.198Z,3.93
2022-08-31T14:04:39.068Z,3.70
2022-08-31T14:07:07.193Z,3.30
2022-08-31T14:09:35.181Z,3.10
2022-08-31T14:12:05.393Z,3.77
2022-08-31T14:14:43.140Z,3.80
2022-08-31T14:17:17.209Z,3.57
2022-08-31T14:19:46.366Z,4.00
2022-08-31T14:22:32.381Z,3.57
2022-08-31T14:25:02.639Z,3.60
2022-08-31T14:27:41.597Z,4.20
2022-08-31T14:30:10.504Z,3.70
2022-08-31T14:32:38.429Z,4.10
2022-08-31T14:35:12.009Z,3.50
2022-08-31T14:37:42.223Z,3.93
2022-08-31T14:40:14.018Z,3.80
2022-08-31T14:42:44.295Z,3.70
2022-08-31T14:45:18.685Z,3.70
2022-08-31T14:47:52.511Z,3.77
2022-08-31T14:50:25.519Z,3.27
2022-08-31T14:52:55.290Z,4.03
2022-08-31T14:55:24.917Z,2.73
2022-08-31T14:58:01.554Z,3.30
2022-08-31T15:00:31.754Z,3.73
2022-08-31T15:03:02.529Z,3.50
2022-08-31T15:05:32.347Z,4.03
2022-08-31T15:08:00.642Z,3.57
2022-08-31T15:10:28.898Z,3.87
2022-08-31T15:13:05.574Z,3.20
2022-08-31T15:15:33.878Z,3.60
2022-08-31T15:18:04.804Z,3.07
2022-08-31T15:20:39.929Z,2.60
2022-08-31T15:23:08.595Z,2.73
2022-08-31T15:25:39.256Z,3.80
2022-08-31T15:28:09.576Z,4.03
2022-08-31T15:30:39.790Z,3.30
2022-08-31T15:33:11.092Z,2.80
2022-08-31T15:35:43.247Z,3.53
2022-08-31T15:38:11.790Z,3.03
2022-08-31T15:40:40.003Z,3.60
2022-08-31T15:43:15.195Z,3.27
2022-08-31T15:45:43.282Z,3.37
2022-08-31T15:48:28.763Z,3.50
2022-08-31T15:51:00.595Z,2.93
2022-08-31T15:53:30.868Z,3.07
2022-08-31T15:56:05.812Z,2.97
2022-08-31T15:58:39.139Z,3.00
2022-08-31T16:01:12.739Z,2.60
2022-08-31T16:03:42.116Z,2.50
2022-08-31T16:06:11.396Z,2.80
2022-08-31T16:08:41.319Z,2.60
2022-08-31T16:11:11.532Z,2.00
2022-08-31T16:13:51.327Z,3.50
2022-08-31T16:16:20.506Z,2.40
2022-08-31T16:18:51.217Z,2.70
2022-08-31T16:21:22.061Z,3.60
2022-08-31T16:23:55.150Z,3.40
2022-08-31T16:26:23.603Z,3.67
2022-08-31T16:28:53.329Z,3.30
2022-08-31T16:31:21.433Z,2.70
2022-08-31T16:33:49.485Z,3.57
2022-08-31T16:36:19.131Z,3.00
2022-08-31T16:38:48.639Z,4.00
2022-08-31T16:41:17.871Z,3.37
2022-08-31T16:44:03.534Z,3.40
2022-08-31T16:46:40.965Z,3.27
2022-08-31T16:49:28.291Z,3.83
2022-08-31T16:51:56.352Z,3.77
2022-08-31T16:54:26.042Z,4.50
2022-08-31T16:56:55.204Z,4.17
2022-08-31T16:59:23.252Z,3.47
2022-08-31T17:01:53.005Z,4.20
2022-08-31T17:04:48.268Z,4.17
2022-08-31T17:07:15.070Z,4.30
2022-08-31T17:09:43.518Z,3.30
2022-08-31T17:12:15.391Z,3.10
2022-08-31T17:14:46.939Z,3.00
2022-08-31T17:17:18.083Z,2.77
2022-08-31T17:19:47.627Z,3.13
2022-08-31T17:22:25.681Z,3.13
2022-08-31T17:24:57.760Z,3.67
2022-08-31T17:27:27.714Z,2.30
2022-08-31T17:29:58.095Z,2.80
2022-08-31T17:32:29.664Z,2.90
2022-08-31T17:34:58.490Z,2.50
2022-08-31T17:37:30.433Z,3.20
2022-08-31T17:39:59.886Z,2.70
2022-08-31T17:42:29.095Z,3.70
2022-08-31T17:44:59.282Z,3.00
2022-08-31T17:47:28.796Z,3.57
2022-08-31T17:49:56.832Z,3.40
2022-08-31T17:52:24.910Z,2.80
2022-08-31T17:54:53.063Z,3.90
2022-08-31T17:57:25.214Z,3.87
2022-08-31T17:59:55.023Z,4.60
2022-08-31T18:02:26.630Z,3.37
2022-08-31T18:04:56.266Z,3.30
2022-08-31T18:07:24.597Z,3.07
2022-08-31T18:09:59.064Z,3.47
2022-08-31T18:12:27.533Z,3.97
2022-08-31T18:14:58.106Z,4.10
2022-08-31T18:17:29.097Z,4.20
2022-08-31T18:19:58.903Z,4.23
2022-08-31T18:22:28.334Z,3.33
2022-08-31T18:24:56.805Z,3.77
2022-08-31T18:27:25.084Z,4.00
2022-08-31T18:29:53.478Z,3.70
2022-08-31T18:32:21.529Z,4.30
2022-08-31T18:34:52.078Z,3.90
2022-08-31T18:37:25.800Z,3.93
2022-08-31T18:40:12.130Z,3.90
2022-08-31T18:42:57.937Z,4.37
2022-08-31T18:45:26.613Z,4.10
2022-08-31T18:50:46.752Z,4.73
2022-08-31T18:53:28.587Z,4.13
2022-08-31T18:55:58.645Z,4.20
2022-08-31T18:58:26.959Z,4.00
2022-08-31T19:00:57.741Z,4.00
2022-08-31T19:03:27.529Z,3.83
2022-08-31T19:05:56.642Z,4.03
2022-08-31T19:08:26.970Z,4.13
2022-08-31T19:10:58.229Z,4.80
2022-08-31T19:13:31.593Z,4.50
2022-08-31T19:16:03.821Z,4.80
2022-08-31T19:18:34.379Z,4.10
2022-08-31T19:21:12.877Z,4.00
2022-08-31T19:23:43.582Z,4.50
2022-08-31T19:26:11.865Z,4.87
2022-08-31T19:28:39.896Z,4.47
2022-08-31T19:31:11.648Z,4.30
2022-08-31T19:33:39.844Z,4.00
2022-08-31T19:36:08.484Z,4.83
2022-08-31T19:38:38.067Z,3.50
2022-08-31T19:41:15.484Z,4.53
2022-08-31T19:43:49.023Z,4.10
2022-08-31T19:46:25.372Z,4.30
2022-08-31T19:48:54.125Z,3.43
2022-08-31T19:51:24.678Z,4.70
2022-08-31T19:53:53.394Z,5.20
2022-08-31T19:56:28.602Z,3.93
2022-08-31T19:58:56.953Z,4.70
2022-08-31T20:01:33.788Z,5.00
2022-08-31T20:04:04.239Z,5.00
2022-08-31T20:06:32.667Z,5.20
2022-08-31T20:09:00.742Z,5.33
2022-08-31T20:11:32.265Z,4.10
2022-08-31T20:14:01.350Z,3.53
2022-08-31T20:16:34.650Z,5.20
2022-08-31T20:19:04.265Z,4.17
2022-08-31T20:21:35.042Z,4.87
2022-08-31T20:24:06.873Z,5.10
2022-08-31T20:26:46.369Z,4.40
2022-08-31T20:29:18.123Z,4.53
2022-08-31T20:31:48.943Z,3.80
2022-08-31T20:34:19.372Z,4.50
2022-08-31T20:36:50.201Z,4.17
2022-08-31T20:39:19.679Z,3.67
2022-08-31T20:41:50.649Z,3.97
2022-08-31T20:44:21.932Z,4.50
2022-08-31T20:47:10.096Z,4.17
2022-08-31T20:49:40.199Z,3.90
2022-08-31T20:52:10.079Z,4.20
2022-08-31T20:54:39.024Z,3.80
2022-08-31T20:57:10.177Z,4.50
2022-08-31T20:59:38.746Z,3.60
2022-08-31T21:02:08.558Z,5.00
2022-08-31T21:04:39.563Z,4.67
2022-08-31T21:07:12.002Z,3.47
2022-08-31T21:09:40.932Z,4.00
2022-08-31T21:12:14.251Z,4.10
2022-08-31T21:14:46.767Z,5.20
2022-08-31T21:17:15.969Z,3.90
2022-08-31T21:19:44.769Z,4.23
2022-08-31T21:22:14.521Z,3.87
2022-08-31T21:24:43.390Z,4.23
2022-08-31T21:27:18.515Z,4.20
2022-08-31T21:29:47.174Z,3.73
2022-08-31T21:32:16.581Z,4.07
2022-08-31T21:34:44.577Z,4.07
2022-08-31T21:37:12.662Z,5.00
2022-08-31T21:39:41.885Z,4.20
2022-08-31T21:42:09.903Z,3.87
2022-08-31T21:44:39.455Z,3.40
2022-08-31T21:47:09.889Z,4.40
2022-08-31T21:49:37.845Z,3.90
2022-08-31T21:52:05.877Z,4.03
2022-08-31T21:54:33.838Z,3.93
2022-08-31T21:57:03.860Z,3.17
2022-08-31T21:59:35.197Z,4.43
2022-08-31T22:02:06.514Z,4.90
2022-08-31T22:04:36.831Z,4.20
2022-08-31T22:07:08.127Z,3.70
2022-08-31T22:09:37.737Z,3.90
2022-08-31T22:12:07.515Z,4.00
2022-08-31T22:14:38.195Z,4.13
2022-08-31T22:17:08.828Z,4.07
2022-08-31T22:19:39.591Z,3.87
2022-08-31T22:22:12.032Z,4.37
2022-08-31T22:24:42.178Z,4.30
2022-08-31T22:27:12.426Z,4.73
2022-08-31T22:29:41.035Z,4.70
2022-08-31T22:32:12.229Z,5.67
2022-08-31T22:34:41.236Z,4.50
2022-08-31T22:37:09.488Z,6.00
2022-08-31T22:39:37.682Z,4.63
2022-08-31T22:42:06.062Z,4.63
2022-08-31T22:44:36.442Z,5.83
2022-08-31T22:47:05.238Z,5.37
2022-08-31T22:49:35.106Z,3.87
2022-08-31T22:52:03.387Z,4.87
2022-08-31T22:54:31.508Z,4.30
2022-08-31T22:56:59.831Z,3.90
2022-08-31T22:59:28.208Z,3.60
2022-08-31T23:02:03.670Z,4.53
2022-08-31T23:04:35.261Z,4.47
2022-08-31T23:07:04.346Z,3.57
2022-08-31T23:09:34.325Z,3.90
2022-08-31T23:12:04.652Z,3.57
2022-08-31T23:14:33.357Z,3.97
2022-08-31T23:17:04.039Z,3.83
2022-08-31T23:19:37.185Z,3.70
2022-08-31T23:22:08.712Z,4.20
2022-08-31T23:24:38.932Z,3.90
2022-08-31T23:27:09.319Z,3.37
2022-08-31T23:29:40.641Z,3.53
2022-08-31T23:32:12.142Z,4.10
2022-08-31T23:34:42.161Z,4.17
2022-08-31T23:37:11.253Z,3.80
2022-08-31T23:39:43.411Z,4.07
2022-08-31T23:42:13.213Z,4.10
2022-08-31T23:44:43.366Z,4.00
2022-08-31T23:47:13.599Z,3.90
2022-08-31T23:49:46.030Z,4.10
2022-08-31T23:52:15.675Z,4.20
2022-08-31T23:54:43.756Z,4.03
2022-08-31T23:57:31.242Z,3.93
